sensor_id;sensor_type;location;lat;lon;timestamp;temperature;humidity
47532;DHT22;33273;52.254;7.988;2022-11-04T00:02:03;11.30;99.90
47532;DHT22;33273;52.254;7.988;2022-11-04T00:04:29;11.30;99.90
47532;DHT22;33273;52.254;7.988;2022-11-04T00:06:55;11.30;99.90
47532;DHT22;33273;52.254;7.988;2022-11-04T00:09:24;11.30;99.90
47532;DHT22;33273;52.254;7.988;2022-11-04T00:11:51;11.40;99.90
47532;DHT22;33273;52.254;7.988;2022-11-04T00:14:36;11.40;99.90
47532;DHT22;33273;52.254;7.988;2022-11-04T00:17:02;11.40;99.90
47532;DHT22;33273;52.254;7.988;2022-11-04T00:19:53;11.40;99.90
47532;DHT22;33273;52.254;7.988;2022-11-04T00:22:39;11.40;99.90
47532;DHT22;33273;52.254;7.988;2022-11-04T00:25:24;11.40;99.90
47532;DHT22;33273;52.254;7.988;2022-11-04T00:28:18;11.40;99.90
47532;DHT22;33273;52.254;7.988;2022-11-04T00:31:07;11.40;99.90
47532;DHT22;33273;52.254;7.988;2022-11-04T00:33:53;11.40;99.90
47532;DHT22;33273;52.254;7.988;2022-11-04T00:36:20;11.40;99.90
47532;DHT22;33273;52.254;7.988;2022-11-04T00:38:47;11.40;99.90
47532;DHT22;33273;52.254;7.988;2022-11-04T00:41:15;11.40;99.90
47532;DHT22;33273;52.254;7.988;2022-11-04T00:44:01;11.40;99.90
47532;DHT22;33273;52.254;7.988;2022-11-04T00:46:29;11.40;99.90
47532;DHT22;33273;52.254;7.988;2022-11-04T00:48:57;11.40;99.90
47532;DHT22;33273;52.254;7.988;2022-11-04T00:51:23;11.40;99.90
47532;DHT22;33273;52.254;7.988;2022-11-04T00:53:49;11.30;99.90
47532;DHT22;33273;52.254;7.988;2022-11-04T00:56:15;11.20;99.90
47532;DHT22;33273;52.254;7.988;2022-11-04T00:58:43;11.20;99.90
47532;DHT22;33273;52.254;7.988;2022-11-04T01:01:11;11.10;99.90
47532;DHT22;33273;52.254;7.988;2022-11-04T01:03:39;11.10;99.90
47532;DHT22;33273;52.254;7.988;2022-11-04T01:06:05;11.00;99.90
47532;DHT22;33273;52.254;7.988;2022-11-04T01:08:32;11.00;99.90
47532;DHT22;33273;52.254;7.988;2022-11-04T01:11:01;11.00;99.90
47532;DHT22;33273;52.254;7.988;2022-11-04T01:13:27;10.90;99.90
47532;DHT22;33273;52.254;7.988;2022-11-04T01:15:59;10.80;99.90
47532;DHT22;33273;52.254;7.988;2022-11-04T01:18:26;10.80;99.90
47532;DHT22;33273;52.254;7.988;2022-11-04T01:20:52;10.80;99.90
47532;DHT22;33273;52.254;7.988;2022-11-04T01:23:17;10.70;99.70
47532;DHT22;33273;52.254;7.988;2022-11-04T01:25:43;10.70;99.50
47532;DHT22;33273;52.254;7.988;2022-11-04T01:28:09;10.70;99.70
47532;DHT22;33273;52.254;7.988;2022-11-04T01:30:37;10.60;99.70
47532;DHT22;33273;52.254;7.988;2022-11-04T01:33:03;10.60;99.90
47532;DHT22;33273;52.254;7.988;2022-11-04T01:35:30;10.60;99.90
47532;DHT22;33273;52.254;7.988;2022-11-04T01:37:59;10.60;99.90
47532;DHT22;33273;52.254;7.988;2022-11-04T01:40:26;10.50;99.90
47532;DHT22;33273;52.254;7.988;2022-11-04T01:42:52;10.50;99.80
47532;DHT22;33273;52.254;7.988;2022-11-04T01:45:21;10.50;99.70
47532;DHT22;33273;52.254;7.988;2022-11-04T01:48:00;10.40;99.40
47532;DHT22;33273;52.254;7.988;2022-11-04T01:50:31;10.40;99.20
47532;DHT22;33273;52.254;7.988;2022-11-04T01:53:28;10.30;99.90
47532;DHT22;33273;52.254;7.988;2022-11-04T01:56:02;10.30;99.80
47532;DHT22;33273;52.254;7.988;2022-11-04T01:58:31;10.30;99.90
47532;DHT22;33273;52.254;7.988;2022-11-04T02:01:00;10.30;99.90
47532;DHT22;33273;52.254;7.988;2022-11-04T02:03:32;10.30;99.90
47532;DHT22;33273;52.254;7.988;2022-11-04T02:05:59;10.20;99.90
47532;DHT22;33273;52.254;7.988;2022-11-04T02:08:26;10.20;99.90
47532;DHT22;33273;52.254;7.988;2022-11-04T02:10:58;10.20;99.90
47532;DHT22;33273;52.254;7.988;2022-11-04T02:13:26;10.20;99.90
47532;DHT22;33273;52.254;7.988;2022-11-04T02:16:15;10.20;99.90
47532;DHT22;33273;52.254;7.988;2022-11-04T02:18:54;10.20;99.90
47532;DHT22;33273;52.254;7.988;2022-11-04T02:24:38;10.20;99.90
47532;DHT22;33273;52.254;7.988;2022-11-04T02:27:17;10.20;99.90
47532;DHT22;33273;52.254;7.988;2022-11-04T02:33:10;10.20;99.90
47532;DHT22;33273;52.254;7.988;2022-11-04T02:36:00;10.20;99.90
47532;DHT22;33273;52.254;7.988;2022-11-04T02:46:59;10.20;99.90
47532;DHT22;33273;52.254;7.988;2022-11-04T02:49:44;10.30;99.90
47532;DHT22;33273;52.254;7.988;2022-11-04T02:52:42;10.20;99.90
47532;DHT22;33273;52.254;7.988;2022-11-04T02:55:19;10.20;99.90
47532;DHT22;33273;52.254;7.988;2022-11-04T02:57:47;10.20;99.90
47532;DHT22;33273;52.254;7.988;2022-11-04T03:00:15;10.20;99.90
47532;DHT22;33273;52.254;7.988;2022-11-04T03:02:53;10.20;99.90
47532;DHT22;33273;52.254;7.988;2022-11-04T03:05:32;10.20;99.90
47532;DHT22;33273;52.254;7.988;2022-11-04T03:08:23;10.20;99.90
47532;DHT22;33273;52.254;7.988;2022-11-04T03:11:03;10.20;99.90
47532;DHT22;33273;52.254;7.988;2022-11-04T03:13:45;10.20;99.90
47532;DHT22;33273;52.254;7.988;2022-11-04T03:16:16;10.20;99.70
47532;DHT22;33273;52.254;7.988;2022-11-04T03:22:18;10.10;98.90
47532;DHT22;33273;52.254;7.988;2022-11-04T03:24:46;10.10;98.40
47532;DHT22;33273;52.254;7.988;2022-11-04T03:30:11;10.00;97.50
47532;DHT22;33273;52.254;7.988;2022-11-04T03:32:57;9.90;97.50
47532;DHT22;33273;52.254;7.988;2022-11-04T03:35:25;9.90;97.30
47532;DHT22;33273;52.254;7.988;2022-11-04T03:37:51;9.80;97.60
47532;DHT22;33273;52.254;7.988;2022-11-04T03:40:19;9.80;97.90
47532;DHT22;33273;52.254;7.988;2022-11-04T03:43:15;9.70;97.90
47532;DHT22;33273;52.254;7.988;2022-11-04T03:45:42;9.70;97.90
47532;DHT22;33273;52.254;7.988;2022-11-04T03:48:09;9.70;97.60
47532;DHT22;33273;52.254;7.988;2022-11-04T03:50:46;9.60;97.40
47532;DHT22;33273;52.254;7.988;2022-11-04T03:53:17;9.60;97.60
47532;DHT22;33273;52.254;7.988;2022-11-04T04:01:49;9.50;98.50
47532;DHT22;33273;52.254;7.988;2022-11-04T04:04:39;9.50;98.60
47532;DHT22;33273;52.254;7.988;2022-11-04T04:13:00;9.50;98.80
47532;DHT22;33273;52.254;7.988;2022-11-04T04:15:33;9.60;98.70
47532;DHT22;33273;52.254;7.988;2022-11-04T04:18:08;9.50;98.60
47532;DHT22;33273;52.254;7.988;2022-11-04T04:20:36;9.60;98.40
47532;DHT22;33273;52.254;7.988;2022-11-04T04:23:07;9.50;98.30
47532;DHT22;33273;52.254;7.988;2022-11-04T04:25:56;9.60;98.30
47532;DHT22;33273;52.254;7.988;2022-11-04T04:28:43;9.60;98.30
47532;DHT22;33273;52.254;7.988;2022-11-04T04:31:11;9.60;97.90
47532;DHT22;33273;52.254;7.988;2022-11-04T04:33:59;9.60;97.60
47532;DHT22;33273;52.254;7.988;2022-11-04T04:36:26;9.60;97.40
47532;DHT22;33273;52.254;7.988;2022-11-04T04:38:52;9.60;97.30
47532;DHT22;33273;52.254;7.988;2022-11-04T04:41:37;9.60;97.10
47532;DHT22;33273;52.254;7.988;2022-11-04T04:44:27;9.60;97.00
47532;DHT22;33273;52.254;7.988;2022-11-04T04:47:18;9.70;97.10
47532;DHT22;33273;52.254;7.988;2022-11-04T04:49:49;9.60;96.90
47532;DHT22;33273;52.254;7.988;2022-11-04T04:52:16;9.70;96.70
47532;DHT22;33273;52.254;7.988;2022-11-04T04:54:42;9.70;96.50
47532;DHT22;33273;52.254;7.988;2022-11-04T04:57:10;9.70;96.30
47532;DHT22;33273;52.254;7.988;2022-11-04T04:59:37;9.70;96.50
47532;DHT22;33273;52.254;7.988;2022-11-04T05:02:03;9.70;96.40
47532;DHT22;33273;52.254;7.988;2022-11-04T05:04:29;9.70;96.40
47532;DHT22;33273;52.254;7.988;2022-11-04T05:06:56;9.70;96.20
47532;DHT22;33273;52.254;7.988;2022-11-04T05:09:22;9.70;95.60
47532;DHT22;33273;52.254;7.988;2022-11-04T05:11:48;9.70;95.50
47532;DHT22;33273;52.254;7.988;2022-11-04T05:14:14;9.70;95.20
47532;DHT22;33273;52.254;7.988;2022-11-04T05:16:39;9.70;95.20
47532;DHT22;33273;52.254;7.988;2022-11-04T05:19:07;9.70;95.20
47532;DHT22;33273;52.254;7.988;2022-11-04T05:21:33;9.70;95.00
47532;DHT22;33273;52.254;7.988;2022-11-04T05:23:58;9.70;95.10
47532;DHT22;33273;52.254;7.988;2022-11-04T05:26:25;9.70;94.80
47532;DHT22;33273;52.254;7.988;2022-11-04T05:28:52;9.70;94.10
47532;DHT22;33273;52.254;7.988;2022-11-04T05:31:18;9.60;93.50
47532;DHT22;33273;52.254;7.988;2022-11-04T05:33:45;9.60;93.30
47532;DHT22;33273;52.254;7.988;2022-11-04T05:36:14;9.60;93.30
47532;DHT22;33273;52.254;7.988;2022-11-04T05:38:40;9.50;93.40
47532;DHT22;33273;52.254;7.988;2022-11-04T05:41:08;9.50;94.40
47532;DHT22;33273;52.254;7.988;2022-11-04T05:43:37;9.50;94.00
47532;DHT22;33273;52.254;7.988;2022-11-04T05:46:03;9.50;94.40
47532;DHT22;33273;52.254;7.988;2022-11-04T05:48:29;9.60;94.60
47532;DHT22;33273;52.254;7.988;2022-11-04T05:50:55;9.50;94.70
47532;DHT22;33273;52.254;7.988;2022-11-04T05:53:21;9.60;94.80
47532;DHT22;33273;52.254;7.988;2022-11-04T05:55:47;9.50;94.90
47532;DHT22;33273;52.254;7.988;2022-11-04T05:58:12;9.60;94.80
47532;DHT22;33273;52.254;7.988;2022-11-04T06:00:38;9.60;94.90
47532;DHT22;33273;52.254;7.988;2022-11-04T06:03:04;9.60;94.80
47532;DHT22;33273;52.254;7.988;2022-11-04T06:05:30;9.60;94.80
47532;DHT22;33273;52.254;7.988;2022-11-04T06:07:56;9.60;94.50
47532;DHT22;33273;52.254;7.988;2022-11-04T06:10:23;9.60;94.40
47532;DHT22;33273;52.254;7.988;2022-11-04T06:12:49;9.60;94.40
47532;DHT22;33273;52.254;7.988;2022-11-04T06:15:15;9.60;94.00
47532;DHT22;33273;52.254;7.988;2022-11-04T06:17:41;9.60;93.70
47532;DHT22;33273;52.254;7.988;2022-11-04T06:20:07;9.60;93.50
47532;DHT22;33273;52.254;7.988;2022-11-04T06:22:34;9.60;93.60
47532;DHT22;33273;52.254;7.988;2022-11-04T06:24:59;9.60;93.50
47532;DHT22;33273;52.254;7.988;2022-11-04T06:27:25;9.60;93.40
47532;DHT22;33273;52.254;7.988;2022-11-04T06:29:51;9.60;93.50
47532;DHT22;33273;52.254;7.988;2022-11-04T06:32:19;9.60;92.90
47532;DHT22;33273;52.254;7.988;2022-11-04T06:34:45;9.60;92.20
47532;DHT22;33273;52.254;7.988;2022-11-04T06:37:11;9.50;92.30
47532;DHT22;33273;52.254;7.988;2022-11-04T06:39:37;9.50;92.10
47532;DHT22;33273;52.254;7.988;2022-11-04T06:42:04;9.40;92.00
47532;DHT22;33273;52.254;7.988;2022-11-04T06:44:30;9.40;92.20
47532;DHT22;33273;52.254;7.988;2022-11-04T06:46:58;9.40;92.30
47532;DHT22;33273;52.254;7.988;2022-11-04T06:49:24;9.30;92.50
47532;DHT22;33273;52.254;7.988;2022-11-04T06:51:50;9.30;93.40
47532;DHT22;33273;52.254;7.988;2022-11-04T06:54:17;9.30;93.30
47532;DHT22;33273;52.254;7.988;2022-11-04T06:56:43;9.30;93.40
47532;DHT22;33273;52.254;7.988;2022-11-04T06:59:18;9.20;93.60
47532;DHT22;33273;52.254;7.988;2022-11-04T07:01:46;9.20;93.80
47532;DHT22;33273;52.254;7.988;2022-11-04T07:04:13;9.10;93.80
47532;DHT22;33273;52.254;7.988;2022-11-04T07:06:43;9.10;94.20
47532;DHT22;33273;52.254;7.988;2022-11-04T07:09:11;9.10;94.50
47532;DHT22;33273;52.254;7.988;2022-11-04T07:11:38;9.10;95.40
47532;DHT22;33273;52.254;7.988;2022-11-04T07:14:04;9.10;94.90
47532;DHT22;33273;52.254;7.988;2022-11-04T07:16:30;9.10;95.30
47532;DHT22;33273;52.254;7.988;2022-11-04T07:18:57;9.10;95.50
47532;DHT22;33273;52.254;7.988;2022-11-04T07:21:26;9.10;95.70
47532;DHT22;33273;52.254;7.988;2022-11-04T07:23:52;9.10;95.90
47532;DHT22;33273;52.254;7.988;2022-11-04T07:26:18;9.10;96.10
47532;DHT22;33273;52.254;7.988;2022-11-04T07:28:45;9.10;96.20
47532;DHT22;33273;52.254;7.988;2022-11-04T07:31:12;9.20;96.20
47532;DHT22;33273;52.254;7.988;2022-11-04T07:33:38;9.20;96.30
47532;DHT22;33273;52.254;7.988;2022-11-04T07:36:10;9.20;96.40
47532;DHT22;33273;52.254;7.988;2022-11-04T07:38:36;9.30;96.80
47532;DHT22;33273;52.254;7.988;2022-11-04T07:41:03;9.30;97.20
47532;DHT22;33273;52.254;7.988;2022-11-04T07:43:29;9.30;96.80
47532;DHT22;33273;52.254;7.988;2022-11-04T07:46:00;9.40;96.80
47532;DHT22;33273;52.254;7.988;2022-11-04T07:48:26;9.40;96.80
47532;DHT22;33273;52.254;7.988;2022-11-04T07:51:00;9.50;96.80
47532;DHT22;33273;52.254;7.988;2022-11-04T07:53:27;9.50;96.70
47532;DHT22;33273;52.254;7.988;2022-11-04T07:55:54;9.60;95.60
47532;DHT22;33273;52.254;7.988;2022-11-04T07:58:23;9.60;95.40
47532;DHT22;33273;52.254;7.988;2022-11-04T08:01:11;9.60;94.80
47532;DHT22;33273;52.254;7.988;2022-11-04T08:03:41;9.60;94.40
47532;DHT22;33273;52.254;7.988;2022-11-04T08:06:08;9.70;94.40
47532;DHT22;33273;52.254;7.988;2022-11-04T08:08:34;9.60;94.40
47532;DHT22;33273;52.254;7.988;2022-11-04T08:11:14;9.70;94.10
47532;DHT22;33273;52.254;7.988;2022-11-04T08:13:42;9.70;94.50
47532;DHT22;33273;52.254;7.988;2022-11-04T08:16:14;9.70;95.00
47532;DHT22;33273;52.254;7.988;2022-11-04T08:18:41;9.80;95.30
47532;DHT22;33273;52.254;7.988;2022-11-04T08:21:08;9.80;94.60
47532;DHT22;33273;52.254;7.988;2022-11-04T08:23:34;9.80;94.50
47532;DHT22;33273;52.254;7.988;2022-11-04T08:26:01;9.90;94.20
47532;DHT22;33273;52.254;7.988;2022-11-04T08:28:27;9.90;93.90
47532;DHT22;33273;52.254;7.988;2022-11-04T08:31:01;9.90;93.10
47532;DHT22;33273;52.254;7.988;2022-11-04T08:33:30;10.00;93.00
47532;DHT22;33273;52.254;7.988;2022-11-04T08:36:03;10.00;93.20
47532;DHT22;33273;52.254;7.988;2022-11-04T08:38:29;10.00;92.20
47532;DHT22;33273;52.254;7.988;2022-11-04T08:40:57;10.10;92.50
47532;DHT22;33273;52.254;7.988;2022-11-04T08:43:26;10.20;92.30
47532;DHT22;33273;52.254;7.988;2022-11-04T08:45:52;10.20;91.00
47532;DHT22;33273;52.254;7.988;2022-11-04T08:48:18;10.20;90.80
47532;DHT22;33273;52.254;7.988;2022-11-04T08:50:51;10.30;90.70
47532;DHT22;33273;52.254;7.988;2022-11-04T08:53:17;10.30;91.10
47532;DHT22;33273;52.254;7.988;2022-11-04T08:55:43;10.30;90.60
47532;DHT22;33273;52.254;7.988;2022-11-04T08:58:09;10.40;89.70
47532;DHT22;33273;52.254;7.988;2022-11-04T09:00:35;10.40;89.60
47532;DHT22;33273;52.254;7.988;2022-11-04T09:03:01;10.40;90.10
47532;DHT22;33273;52.254;7.988;2022-11-04T09:05:28;10.40;90.50
47532;DHT22;33273;52.254;7.988;2022-11-04T09:07:54;10.50;90.90
47532;DHT22;33273;52.254;7.988;2022-11-04T09:10:20;10.60;90.90
47532;DHT22;33273;52.254;7.988;2022-11-04T09:12:47;10.70;90.80
47532;DHT22;33273;52.254;7.988;2022-11-04T09:15:14;10.80;90.10
47532;DHT22;33273;52.254;7.988;2022-11-04T09:17:40;10.80;89.70
47532;DHT22;33273;52.254;7.988;2022-11-04T09:20:10;10.80;88.60
47532;DHT22;33273;52.254;7.988;2022-11-04T09:22:36;10.90;87.40
47532;DHT22;33273;52.254;7.988;2022-11-04T09:25:03;10.90;87.70
47532;DHT22;33273;52.254;7.988;2022-11-04T09:27:29;11.00;86.50
47532;DHT22;33273;52.254;7.988;2022-11-04T09:29:55;11.00;86.10
47532;DHT22;33273;52.254;7.988;2022-11-04T09:32:21;11.10;84.90
47532;DHT22;33273;52.254;7.988;2022-11-04T09:34:47;11.10;84.70
47532;DHT22;33273;52.254;7.988;2022-11-04T09:37:12;11.20;84.80
47532;DHT22;33273;52.254;7.988;2022-11-04T09:39:38;11.20;84.10
47532;DHT22;33273;52.254;7.988;2022-11-04T09:42:13;11.30;83.50
47532;DHT22;33273;52.254;7.988;2022-11-04T09:44:54;11.30;82.90
47532;DHT22;33273;52.254;7.988;2022-11-04T09:47:23;11.30;82.60
47532;DHT22;33273;52.254;7.988;2022-11-04T09:49:52;11.30;81.40
47532;DHT22;33273;52.254;7.988;2022-11-04T09:52:24;11.30;80.40
47532;DHT22;33273;52.254;7.988;2022-11-04T09:57:42;11.20;80.50
47532;DHT22;33273;52.254;7.988;2022-11-04T10:00:15;11.30;82.10
47532;DHT22;33273;52.254;7.988;2022-11-04T10:27:20;12.10;77.70
47532;DHT22;33273;52.254;7.988;2022-11-04T10:29:50;12.10;74.20
47532;DHT22;33273;52.254;7.988;2022-11-04T10:32:52;12.10;73.50
47532;DHT22;33273;52.254;7.988;2022-11-04T10:35:38;12.10;74.40
47532;DHT22;33273;52.254;7.988;2022-11-04T10:38:34;12.10;74.70
47532;DHT22;33273;52.254;7.988;2022-11-04T10:43:41;12.10;74.70
47532;DHT22;33273;52.254;7.988;2022-11-04T10:51:52;12.20;73.60
47532;DHT22;33273;52.254;7.988;2022-11-04T10:54:21;12.20;73.90
47532;DHT22;33273;52.254;7.988;2022-11-04T10:56:54;12.20;73.50
47532;DHT22;33273;52.254;7.988;2022-11-04T10:59:28;12.30;73.40
47532;DHT22;33273;52.254;7.988;2022-11-04T11:01:57;12.30;72.70
47532;DHT22;33273;52.254;7.988;2022-11-04T11:06:57;12.40;71.70
47532;DHT22;33273;52.254;7.988;2022-11-04T11:09:31;12.50;72.40
47532;DHT22;33273;52.254;7.988;2022-11-04T11:14:41;12.70;71.00
47532;DHT22;33273;52.254;7.988;2022-11-04T11:20:02;12.80;72.40
47532;DHT22;33273;52.254;7.988;2022-11-04T11:22:38;12.90;68.70
47532;DHT22;33273;52.254;7.988;2022-11-04T11:25:28;12.90;70.50
47532;DHT22;33273;52.254;7.988;2022-11-04T11:28:12;13.00;69.60
47532;DHT22;33273;52.254;7.988;2022-11-04T11:33:25;13.10;68.30
47532;DHT22;33273;52.254;7.988;2022-11-04T11:36:05;13.10;68.10
47532;DHT22;33273;52.254;7.988;2022-11-04T11:38:51;13.20;67.10
47532;DHT22;33273;52.254;7.988;2022-11-04T11:41:19;13.10;66.80
47532;DHT22;33273;52.254;7.988;2022-11-04T11:43:51;13.20;67.40
47532;DHT22;33273;52.254;7.988;2022-11-04T11:46:25;13.20;66.90
47532;DHT22;33273;52.254;7.988;2022-11-04T11:48:54;13.20;67.70
47532;DHT22;33273;52.254;7.988;2022-11-04T11:51:35;13.30;68.20
47532;DHT22;33273;52.254;7.988;2022-11-04T11:54:32;13.30;67.80
47532;DHT22;33273;52.254;7.988;2022-11-04T11:57:31;13.30;67.40
47532;DHT22;33273;52.254;7.988;2022-11-04T12:00:05;13.30;66.40
47532;DHT22;33273;52.254;7.988;2022-11-04T12:06:17;13.20;65.40
47532;DHT22;33273;52.254;7.988;2022-11-04T12:11:34;12.90;65.90
47532;DHT22;33273;52.254;7.988;2022-11-04T12:15:08;12.80;66.50
47532;DHT22;33273;52.254;7.988;2022-11-04T12:20:06;12.90;68.20
47532;DHT22;33273;52.254;7.988;2022-11-04T12:41:41;12.60;68.10
47532;DHT22;33273;52.254;7.988;2022-11-04T12:44:26;12.60;70.20
47532;DHT22;33273;52.254;7.988;2022-11-04T12:55:26;12.80;69.10
47532;DHT22;33273;52.254;7.988;2022-11-04T13:00:50;12.80;67.30
47532;DHT22;33273;52.254;7.988;2022-11-04T13:03:28;12.80;67.30
47532;DHT22;33273;52.254;7.988;2022-11-04T13:06:05;12.80;68.50
47532;DHT22;33273;52.254;7.988;2022-11-04T13:09:13;12.80;68.10
47532;DHT22;33273;52.254;7.988;2022-11-04T13:12:00;12.90;67.20
47532;DHT22;33273;52.254;7.988;2022-11-04T13:14:35;13.00;67.30
47532;DHT22;33273;52.254;7.988;2022-11-04T13:17:07;13.00;66.20
47532;DHT22;33273;52.254;7.988;2022-11-04T13:19:48;13.00;66.70
47532;DHT22;33273;52.254;7.988;2022-11-04T13:22:22;13.00;67.10
47532;DHT22;33273;52.254;7.988;2022-11-04T13:24:56;13.00;67.00
47532;DHT22;33273;52.254;7.988;2022-11-04T13:27:36;12.90;66.40
47532;DHT22;33273;52.254;7.988;2022-11-04T13:30:08;12.90;67.60
47532;DHT22;33273;52.254;7.988;2022-11-04T13:35:34;12.90;67.40
47532;DHT22;33273;52.254;7.988;2022-11-04T13:38:06;12.90;66.60
47532;DHT22;33273;52.254;7.988;2022-11-04T13:43:33;12.90;67.90
47532;DHT22;33273;52.254;7.988;2022-11-04T13:48:49;13.00;67.90
47532;DHT22;33273;52.254;7.988;2022-11-04T13:51:16;12.90;68.60
47532;DHT22;33273;52.254;7.988;2022-11-04T13:53:53;13.00;68.70
47532;DHT22;33273;52.254;7.988;2022-11-04T13:56:31;13.10;68.50
47532;DHT22;33273;52.254;7.988;2022-11-04T13:59:03;13.10;67.80
47532;DHT22;33273;52.254;7.988;2022-11-04T14:01:31;13.20;67.10
47532;DHT22;33273;52.254;7.988;2022-11-04T14:04:25;13.10;67.20
47532;DHT22;33273;52.254;7.988;2022-11-04T14:09:33;13.00;67.00
47532;DHT22;33273;52.254;7.988;2022-11-04T14:14:46;13.00;68.00
47532;DHT22;33273;52.254;7.988;2022-11-04T14:23:05;12.90;69.30
47532;DHT22;33273;52.254;7.988;2022-11-04T14:26:06;12.90;69.70
47532;DHT22;33273;52.254;7.988;2022-11-04T14:28:35;12.80;69.00
47532;DHT22;33273;52.254;7.988;2022-11-04T14:31:07;12.80;69.30
47532;DHT22;33273;52.254;7.988;2022-11-04T14:33:53;12.80;68.00
47532;DHT22;33273;52.254;7.988;2022-11-04T14:46:45;12.50;67.60
47532;DHT22;33273;52.254;7.988;2022-11-04T14:49:47;12.50;68.20
47532;DHT22;33273;52.254;7.988;2022-11-04T14:55:11;12.40;69.50
47532;DHT22;33273;52.254;7.988;2022-11-04T14:57:43;12.40;69.60
47532;DHT22;33273;52.254;7.988;2022-11-04T15:00:36;12.40;69.70
47532;DHT22;33273;52.254;7.988;2022-11-04T15:03:04;12.30;69.90
47532;DHT22;33273;52.254;7.988;2022-11-04T15:05:32;12.30;70.20
47532;DHT22;33273;52.254;7.988;2022-11-04T15:08:24;12.30;70.50
47532;DHT22;33273;52.254;7.988;2022-11-04T15:10:56;12.20;70.40
47532;DHT22;33273;52.254;7.988;2022-11-04T15:13:23;12.20;70.50
47532;DHT22;33273;52.254;7.988;2022-11-04T15:15:49;12.20;70.70
47532;DHT22;33273;52.254;7.988;2022-11-04T15:18:21;12.20;70.50
47532;DHT22;33273;52.254;7.988;2022-11-04T15:20:57;12.10;71.10
47532;DHT22;33273;52.254;7.988;2022-11-04T15:23:33;12.10;71.60
47532;DHT22;33273;52.254;7.988;2022-11-04T15:26:01;12.10;71.90
47532;DHT22;33273;52.254;7.988;2022-11-04T15:28:33;12.00;72.20
47532;DHT22;33273;52.254;7.988;2022-11-04T15:33:34;12.00;72.80
47532;DHT22;33273;52.254;7.988;2022-11-04T15:36:02;12.00;72.50
47532;DHT22;33273;52.254;7.988;2022-11-04T15:38:28;12.00;72.60
47532;DHT22;33273;52.254;7.988;2022-11-04T15:40:55;12.00;72.80
47532;DHT22;33273;52.254;7.988;2022-11-04T15:43:42;11.90;73.10
47532;DHT22;33273;52.254;7.988;2022-11-04T15:46:18;11.90;73.10
47532;DHT22;33273;52.254;7.988;2022-11-04T15:49:03;11.90;73.20
47532;DHT22;33273;52.254;7.988;2022-11-04T15:51:35;11.90;73.50
47532;DHT22;33273;52.254;7.988;2022-11-04T15:54:32;11.80;73.60
47532;DHT22;33273;52.254;7.988;2022-11-04T15:57:10;11.70;73.90
47532;DHT22;33273;52.254;7.988;2022-11-04T15:59:37;11.70;74.30
47532;DHT22;33273;52.254;7.988;2022-11-04T16:02:06;11.60;74.40
47532;DHT22;33273;52.254;7.988;2022-11-04T16:04:46;11.60;74.60
47532;DHT22;33273;52.254;7.988;2022-11-04T16:07:30;11.50;74.70
47532;DHT22;33273;52.254;7.988;2022-11-04T16:09:58;11.40;74.40
47532;DHT22;33273;52.254;7.988;2022-11-04T16:14:54;11.30;74.40
47532;DHT22;33273;52.254;7.988;2022-11-04T16:17:21;11.30;74.60
47532;DHT22;33273;52.254;7.988;2022-11-04T16:19:53;11.20;74.70
47532;DHT22;33273;52.254;7.988;2022-11-04T16:22:36;11.10;74.70
47532;DHT22;33273;52.254;7.988;2022-11-04T16:25:06;11.10;75.50
47532;DHT22;33273;52.254;7.988;2022-11-04T16:27:36;11.00;76.10
47532;DHT22;33273;52.254;7.988;2022-11-04T16:30:07;10.90;76.60
47532;DHT22;33273;52.254;7.988;2022-11-04T16:32:52;10.80;77.30
47532;DHT22;33273;52.254;7.988;2022-11-04T16:35:23;10.70;78.20
47532;DHT22;33273;52.254;7.988;2022-11-04T16:37:51;10.70;78.20
47532;DHT22;33273;52.254;7.988;2022-11-04T16:40:19;10.60;78.40
47532;DHT22;33273;52.254;7.988;2022-11-04T16:42:46;10.50;79.00
47532;DHT22;33273;52.254;7.988;2022-11-04T16:45:26;10.50;79.80
47532;DHT22;33273;52.254;7.988;2022-11-04T16:47:56;10.40;79.10
47532;DHT22;33273;52.254;7.988;2022-11-04T16:50:23;10.30;79.80
47532;DHT22;33273;52.254;7.988;2022-11-04T16:52:50;10.30;80.30
47532;DHT22;33273;52.254;7.988;2022-11-04T16:55:18;10.20;80.30
47532;DHT22;33273;52.254;7.988;2022-11-04T16:57:45;10.20;80.20
47532;DHT22;33273;52.254;7.988;2022-11-04T17:00:23;10.10;80.50
47532;DHT22;33273;52.254;7.988;2022-11-04T17:02:49;10.00;80.90
47532;DHT22;33273;52.254;7.988;2022-11-04T17:05:16;10.00;81.40
47532;DHT22;33273;52.254;7.988;2022-11-04T17:07:42;9.90;82.60
47532;DHT22;33273;52.254;7.988;2022-11-04T17:10:20;9.90;84.60
47532;DHT22;33273;52.254;7.988;2022-11-04T17:12:47;9.80;87.70
47532;DHT22;33273;52.254;7.988;2022-11-04T17:15:14;9.90;92.20
47532;DHT22;33273;52.254;7.988;2022-11-04T17:17:40;9.90;93.60
47532;DHT22;33273;52.254;7.988;2022-11-04T17:20:09;9.90;96.40
47532;DHT22;33273;52.254;7.988;2022-11-04T17:22:36;10.00;96.80
47532;DHT22;33273;52.254;7.988;2022-11-04T17:25:03;10.00;96.50
47532;DHT22;33273;52.254;7.988;2022-11-04T17:27:36;10.00;96.30
47532;DHT22;33273;52.254;7.988;2022-11-04T17:30:02;9.90;94.70
47532;DHT22;33273;52.254;7.988;2022-11-04T17:32:27;9.80;93.40
47532;DHT22;33273;52.254;7.988;2022-11-04T17:34:54;9.80;92.90
47532;DHT22;33273;52.254;7.988;2022-11-04T17:37:21;9.70;92.80
47532;DHT22;33273;52.254;7.988;2022-11-04T17:39:47;9.70;93.00
47532;DHT22;33273;52.254;7.988;2022-11-04T17:42:13;9.70;92.90
47532;DHT22;33273;52.254;7.988;2022-11-04T17:44:57;9.70;92.90
47532;DHT22;33273;52.254;7.988;2022-11-04T17:47:23;9.70;92.90
47532;DHT22;33273;52.254;7.988;2022-11-04T17:49:53;9.60;92.80
47532;DHT22;33273;52.254;7.988;2022-11-04T17:52:20;9.70;93.00
47532;DHT22;33273;52.254;7.988;2022-11-04T17:54:47;9.60;92.80
47532;DHT22;33273;52.254;7.988;2022-11-04T17:57:13;9.60;92.70
47532;DHT22;33273;52.254;7.988;2022-11-04T17:59:40;9.60;92.60
47532;DHT22;33273;52.254;7.988;2022-11-04T18:02:08;9.60;92.80
47532;DHT22;33273;52.254;7.988;2022-11-04T18:04:33;9.60;93.00
47532;DHT22;33273;52.254;7.988;2022-11-04T18:07:00;9.60;93.10
47532;DHT22;33273;52.254;7.988;2022-11-04T18:09:26;9.60;93.10
47532;DHT22;33273;52.254;7.988;2022-11-04T18:11:52;9.60;93.30
47532;DHT22;33273;52.254;7.988;2022-11-04T18:14:36;9.60;93.50
47532;DHT22;33273;52.254;7.988;2022-11-04T18:17:02;9.60;93.60
47532;DHT22;33273;52.254;7.988;2022-11-04T18:19:30;9.60;93.70
47532;DHT22;33273;52.254;7.988;2022-11-04T18:21:58;9.60;93.80
47532;DHT22;33273;52.254;7.988;2022-11-04T18:24:23;9.70;94.60
47532;DHT22;33273;52.254;7.988;2022-11-04T18:26:49;9.60;94.30
47532;DHT22;33273;52.254;7.988;2022-11-04T18:29:16;9.60;94.10
47532;DHT22;33273;52.254;7.988;2022-11-04T18:31:42;9.60;94.00
47532;DHT22;33273;52.254;7.988;2022-11-04T18:34:12;9.60;93.90
47532;DHT22;33273;52.254;7.988;2022-11-04T18:36:38;9.50;93.80
47532;DHT22;33273;52.254;7.988;2022-11-04T18:39:09;9.50;93.70
47532;DHT22;33273;52.254;7.988;2022-11-04T18:41:37;9.60;93.60
47532;DHT22;33273;52.254;7.988;2022-11-04T18:44:08;9.50;93.20